Time,TemperatureF,DewpointF,PressureIn,WindDirection,WindDirectionDegrees,WindSpeedMPH,WindSpeedGustMPH,Humidity,HourlyPrecipIn,Conditions,Clouds,dailyrainin,SoftwareType,DateUTC
2013-09-24 00:14:00,40.4,39.0,30.16,SSW,197,2.0,3.0,95,0.00,,,0.00,weatherlink.com 1.10,2013-09-24 04:14:00,
2013-09-24 00:29:00,40.5,39.0,30.16,South,191,1.0,3.0,95,0.00,,,0.00,weatherlink.com 1.10,2013-09-24 04:29:00,
2013-09-24 00:44:00,40.7,39.0,30.16,South,180,0.0,2.0,95,0.00,,,0.00,weatherlink.com 1.10,2013-09-24 04:44:00,
2013-09-24 00:59:00,40.6,39.0,30.16,South,180,0.0,2.0,95,0.00,,,0.00,weatherlink.com 1.10,2013-09-24 04:59:00,
2013-09-24 01:14:00,40.0,39.0,30.16,South,180,0.0,2.0,95,0.00,,,0.00,weatherlink.com 1.10,2013-09-24 05:14:00,
2013-09-24 01:29:00,40.3,39.0,30.16,South,181,0.0,1.0,95,0.00,,,0.00,weatherlink.com 1.10,2013-09-24 05:29:00,
2013-09-24 01:44:00,40.7,39.0,30.15,South,175,1.0,1.0,95,0.00,,,0.00,weatherlink.com 1.10,2013-09-24 05:44:00,
2013-09-24 01:59:00,41.1,40.0,30.15,South,175,0.0,1.0,95,0.00,,,0.00,weatherlink.com 1.10,2013-09-24 05:59:00,
2013-09-24 02:14:00,41.2,40.0,30.15,South,175,0.0,1.0,95,0.00,,,0.00,weatherlink.com 1.10,2013-09-24 06:14:00,
2013-09-24 02:29:00,40.6,39.0,30.15,South,175,0.0,0.0,94,0.00,,,0.00,weatherlink.com 1.10,2013-09-24 06:29:00,
2013-09-24 02:44:00,40.7,39.0,30.15,South,182,0.0,4.0,95,0.00,,,0.00,weatherlink.com 1.10,2013-09-24 06:44:00,
2013-09-24 02:59:00,41.0,39.0,30.15,South,182,1.0,3.0,94,0.00,,,0.00,weatherlink.com 1.10,2013-09-24 06:59:00,
2013-09-24 03:14:00,41.3,40.0,30.15,SW,216,5.0,6.0,94,0.00,,,0.00,weatherlink.com 1.10,2013-09-24 07:14:00,
2013-09-24 03:30:00,42.9,41.0,30.16,SW,227,3.0,6.0,93,0.00,,,0.00,weatherlink.com 1.10,2013-09-24 07:30:00,
2013-09-24 03:44:00,44.3,42.0,30.15,SSW,199,3.0,7.0,90,0.00,,,0.00,weatherlink.com 1.10,2013-09-24 07:44:00,
2013-09-24 03:59:00,45.2,42.0,30.15,SW,226,5.0,7.0,89,0.00,,,0.00,weatherlink.com 1.10,2013-09-24 07:59:00,
2013-09-24 04:14:00,45.2,42.0,30.16,SW,219,4.0,8.0,88,0.00,,,0.00,weatherlink.com 1.10,2013-09-24 08:14:00,
2013-09-24 04:29:00,45.2,42.0,30.16,SSW,202,6.0,6.0,89,0.00,,,0.00,weatherlink.com 1.10,2013-09-24 08:29:00,
2013-09-24 04:44:00,44.2,41.0,30.16,SE,136,0.0,4.0,88,0.00,,,0.00,weatherlink.com 1.10,2013-09-24 08:44:00,
2013-09-24 04:59:00,42.4,40.0,30.16,SE,137,0.0,0.0,91,0.00,,,0.00,weatherlink.com 1.10,2013-09-24 08:59:00,
2013-09-24 05:14:00,42.2,40.0,30.16,SE,137,0.0,2.0,93,0.00,,,0.00,weatherlink.com 1.10,2013-09-24 09:14:00,
2013-09-24 05:29:00,40.5,39.0,30.17,SSE,159,0.0,3.0,93,0.00,,,0.00,weatherlink.com 1.10,2013-09-24 09:29:00,
2013-09-24 05:45:00,39.3,38.0,30.16,SSW,200,3.0,5.0,94,0.00,,,0.00,weatherlink.com 1.10,2013-09-24 09:45:00,
2013-09-24 06:00:00,39.5,38.0,30.17,SSW,206,3.0,4.0,95,0.00,,,0.00,weatherlink.com 1.10,2013-09-24 10:00:00,
2013-09-24 06:15:00,39.5,38.0,30.17,SW,215,3.0,4.0,95,0.00,,,0.00,weatherlink.com 1.10,2013-09-24 10:15:00,
2013-09-24 06:30:00,38.5,37.0,30.17,SSW,208,3.0,4.0,95,0.00,,,0.00,weatherlink.com 1.10,2013-09-24 10:30:00,
2013-09-24 06:45:00,38.3,37.0,30.17,SSW,209,4.0,4.0,95,0.00,,,0.00,weatherlink.com 1.10,2013-09-24 10:45:00,
2013-09-24 07:00:00,38.6,38.0,30.18,SW,215,4.0,5.0,96,0.00,,,0.00,weatherlink.com 1.10,2013-09-24 11:00:00,
2013-09-24 07:15:00,38.0,37.0,30.18,SSW,211,3.0,5.0,95,0.00,,,0.00,weatherlink.com 1.10,2013-09-24 11:15:00,
2013-09-24 07:30:00,38.3,37.0,30.18,SW,215,3.0,5.0,96,0.00,,,0.00,weatherlink.com 1.10,2013-09-24 11:30:00,
2013-09-24 07:45:00,38.0,37.0,30.18,South,183,0.0,4.0,96,0.00,,,0.00,weatherlink.com 1.10,2013-09-24 11:45:00,
2013-09-24 08:00:00,39.9,39.0,30.19,South,184,1.0,4.0,96,0.00,,,0.00,weatherlink.com 1.10,2013-09-24 12:00:00,
2013-09-24 08:15:00,42.0,41.0,30.19,SSW,194,2.0,4.0,97,0.00,,,0.00,weatherlink.com 1.10,2013-09-24 12:15:00,
2013-09-24 08:30:00,43.1,42.0,30.19,SSW,205,2.0,4.0,96,0.00,,,0.00,weatherlink.com 1.10,2013-09-24 12:30:00,
2013-09-24 08:45:00,44.6,44.0,30.19,SSW,205,1.0,3.0,96,0.00,,,0.00,weatherlink.com 1.10,2013-09-24 12:45:00,
2013-09-24 09:00:00,47.3,46.0,30.19,SSW,205,0.0,1.0,96,0.00,,,0.00,weatherlink.com 1.10,2013-09-24 13:00:00,
2013-09-24 09:15:00,50.1,49.0,30.19,SSW,205,0.0,0.0,95,0.00,,,0.00,weatherlink.com 1.10,2013-09-24 13:15:00,
2013-09-24 09:30:00,53.5,52.0,30.19,SSW,205,1.0,1.0,93,0.00,,,0.00,weatherlink.com 1.10,2013-09-24 13:30:00,
2013-09-24 09:45:00,55.4,51.0,30.19,SSW,211,2.0,6.0,85,0.00,,,0.00,weatherlink.com 1.10,2013-09-24 13:45:00,
2013-09-24 10:00:00,54.8,50.0,30.19,SW,234,0.0,6.0,83,0.00,,,0.00,weatherlink.com 1.10,2013-09-24 14:00:00,
2013-09-24 10:15:00,54.4,49.0,30.19,SSW,213,1.0,6.0,83,0.00,,,0.00,weatherlink.com 1.10,2013-09-24 14:15:00,
2013-09-24 10:30:00,55.1,50.0,30.18,ESE,122,5.0,5.0,83,0.00,,,0.00,weatherlink.com 1.10,2013-09-24 14:30:00,
2013-09-24 10:45:00,56.9,51.0,30.18,SE,125,0.0,4.0,81,0.00,,,0.00,weatherlink.com 1.10,2013-09-24 14:45:00,
2013-09-24 11:00:00,56.4,52.0,30.18,NNW,346,3.0,7.0,84,0.00,,,0.00,weatherlink.com 1.10,2013-09-24 15:00:00,
2013-09-24 11:15:00,55.3,51.0,30.17,NNE,15,4.0,6.0,84,0.00,,,0.00,weatherlink.com 1.10,2013-09-24 15:15:00,
2013-09-24 11:45:00,56.5,51.0,30.17,NNE,21,5.0,6.0,82,0.00,,,0.00,weatherlink.com 1.10,2013-09-24 15:45:00,
2013-09-24 12:00:00,57.5,52.0,30.17,NE,38,3.0,6.0,81,0.00,,,0.00,weatherlink.com 1.10,2013-09-24 16:00:00,
2013-09-24 12:15:00,57.6,52.0,30.16,NE,45,5.0,7.0,80,0.00,,,0.00,weatherlink.com 1.10,2013-09-24 16:15:00,
2013-09-24 12:30:00,58.4,52.0,30.16,NNE,31,1.0,7.0,79,0.00,,,0.00,weatherlink.com 1.10,2013-09-24 16:30:00,
2013-09-24 12:45:00,58.6,52.0,30.15,NE,34,1.0,7.0,78,0.00,,,0.00,weatherlink.com 1.10,2013-09-24 16:45:00,
2013-09-24 13:00:00,57.6,51.0,30.14,North,11,5.0,10.0,79,0.00,,,0.00,weatherlink.com 1.10,2013-09-24 17:00:00,
2013-09-24 13:15:00,57.5,51.0,30.14,NE,44,4.0,8.0,80,0.00,,,0.00,weatherlink.com 1.10,2013-09-24 17:15:00,
2013-09-24 13:30:00,58.2,52.0,30.14,NE,48,4.0,9.0,80,0.00,,,0.00,weatherlink.com 1.10,2013-09-24 17:30:00,
2013-09-24 13:45:00,57.6,51.0,30.13,NNE,17,7.0,8.0,79,0.00,,,0.00,weatherlink.com 1.10,2013-09-24 17:45:00,
2013-09-24 14:00:00,57.8,52.0,30.12,North,9,6.0,9.0,80,0.00,,,0.00,weatherlink.com 1.10,2013-09-24 18:00:00,
2013-09-24 14:15:00,58.6,51.0,30.11,ENE,63,8.0,10.0,77,0.00,,,0.00,weatherlink.com 1.10,2013-09-24 18:15:00,
2013-09-24 14:30:00,59.0,52.0,30.11,NNE,26,3.0,8.0,77,0.00,,,0.00,weatherlink.com 1.10,2013-09-24 18:30:00,
2013-09-24 14:45:00,58.8,51.0,30.11,NNE,26,3.0,9.0,76,0.00,,,0.00,weatherlink.com 1.10,2013-09-24 18:45:00,
2013-09-24 15:00:00,58.7,52.0,30.10,NNE,33,3.0,8.0,77,0.00,,,0.00,weatherlink.com 1.10,2013-09-24 19:00:00,
2013-09-24 15:15:00,58.9,51.0,30.09,NE,56,3.0,8.0,76,0.00,,,0.00,weatherlink.com 1.10,2013-09-24 19:15:00,
2013-09-24 15:30:00,58.8,52.0,30.09,NNE,19,8.0,8.0,77,0.00,,,0.00,weatherlink.com 1.10,2013-09-24 19:30:00,
2013-09-24 15:45:00,58.5,51.0,30.08,NNW,342,3.0,7.0,77,0.00,,,0.00,weatherlink.com 1.10,2013-09-24 19:45:00,
2013-09-24 16:00:00,58.5,51.0,30.08,NNE,25,5.0,7.0,76,0.00,,,0.00,weatherlink.com 1.10,2013-09-24 20:00:00,
2013-09-24 16:15:00,59.0,50.0,30.08,NNW,327,5.0,7.0,73,0.00,,,0.00,weatherlink.com 1.10,2013-09-24 20:15:00,
2013-09-24 16:31:00,57.9,48.0,30.07,NNW,327,5.0,7.0,69,0.00,,,0.00,weatherlink.com 1.10,2013-09-24 20:31:00,
2013-09-24 16:46:00,58.1,49.0,30.07,NW,319,5.0,7.0,73,0.00,,,0.00,weatherlink.com 1.10,2013-09-24 20:46:00,
2013-09-24 17:01:00,58.2,49.0,30.07,NW,311,5.0,7.0,71,0.00,,,0.00,weatherlink.com 1.10,2013-09-24 21:01:00,
2013-09-24 17:16:00,58.5,49.0,30.07,NW,304,5.0,6.0,71,0.00,,,0.00,weatherlink.com 1.10,2013-09-24 21:16:00,
2013-09-24 17:31:00,58.2,50.0,30.07,NW,313,4.0,6.0,73,0.00,,,0.00,weatherlink.com 1.10,2013-09-24 21:31:00,
2013-09-24 17:46:00,58.3,50.0,30.07,NW,307,4.0,5.0,74,0.00,,,0.00,weatherlink.com 1.10,2013-09-24 21:46:00,
2013-09-24 18:01:00,58.3,49.0,30.07,NW,313,3.0,4.0,71,0.00,,,0.00,weatherlink.com 1.10,2013-09-24 22:01:00,
2013-09-24 18:15:00,58.4,48.0,30.07,NW,325,2.0,3.0,68,0.00,,,0.00,weatherlink.com 1.10,2013-09-24 22:15:00,
2013-09-24 18:30:00,58.8,49.0,30.07,NW,320,0.0,2.0,69,0.00,,,0.00,weatherlink.com 1.10,2013-09-24 22:30:00,
2013-09-24 18:45:00,58.2,46.0,30.06,SE,141,1.0,3.0,65,0.00,,,0.00,weatherlink.com 1.10,2013-09-24 22:45:00,
2013-09-24 19:00:00,56.1,47.0,30.06,SSE,160,0.0,3.0,71,0.00,,,0.00,weatherlink.com 1.10,2013-09-24 23:00:00,
2013-09-24 19:15:00,53.5,46.0,30.06,South,175,0.0,2.0,77,0.00,,,0.00,weatherlink.com 1.10,2013-09-24 23:15:00,
2013-09-24 19:30:00,51.2,46.0,30.05,South,180,2.0,3.0,83,0.00,,,0.00,weatherlink.com 1.10,2013-09-24 23:30:00,
2013-09-24 19:45:00,48.9,45.0,30.05,South,180,2.0,3.0,86,0.00,,,0.00,weatherlink.com 1.10,2013-09-24 23:45:00,
2013-09-24 20:00:00,47.3,44.0,30.05,South,186,2.0,4.0,89,0.00,,,0.00,weatherlink.com 1.10,2013-09-25 00:00:00,
2013-09-24 20:15:00,46.3,44.0,30.05,South,181,1.0,2.0,90,0.00,,,0.00,weatherlink.com 1.10,2013-09-25 00:15:00,
2013-09-24 20:30:00,45.9,44.0,30.05,South,186,2.0,3.0,91,0.00,,,0.00,weatherlink.com 1.10,2013-09-25 00:30:00,
2013-09-24 20:45:00,46.2,44.0,30.05,South,189,0.0,4.0,90,0.00,,,0.00,weatherlink.com 1.10,2013-09-25 00:45:00,
2013-09-24 21:00:00,45.9,43.0,30.05,SSW,199,0.0,4.0,90,0.00,,,0.00,weatherlink.com 1.10,2013-09-25 01:00:00,
2013-09-24 21:15:00,45.0,43.0,30.05,South,190,1.0,4.0,91,0.00,,,0.00,weatherlink.com 1.10,2013-09-25 01:15:00,
2013-09-24 21:30:00,44.5,42.0,30.05,SSW,193,2.0,4.0,92,0.00,,,0.00,weatherlink.com 1.10,2013-09-25 01:30:00,
2013-09-24 21:45:00,44.4,42.0,30.05,SSW,196,2.0,4.0,92,0.00,,,0.00,weatherlink.com 1.10,2013-09-25 01:45:00,
2013-09-24 22:00:00,44.0,42.0,30.04,SSW,198,3.0,3.0,92,0.00,,,0.00,weatherlink.com 1.10,2013-09-25 02:00:00,
2013-09-24 22:16:00,43.2,41.0,30.04,SSW,200,2.0,3.0,92,0.00,,,0.00,weatherlink.com 1.10,2013-09-25 02:16:00,
2013-09-24 22:31:00,43.6,42.0,30.04,SSW,195,1.0,4.0,92,0.00,,,0.00,weatherlink.com 1.10,2013-09-25 02:31:00,
2013-09-24 22:46:00,43.0,41.0,30.04,SSW,196,0.0,2.0,92,0.00,,,0.00,weatherlink.com 1.10,2013-09-25 02:46:00,
2013-09-24 23:01:00,42.0,40.0,30.04,SSW,196,0.0,1.0,92,0.00,,,0.00,weatherlink.com 1.10,2013-09-25 03:01:00,
2013-09-24 23:16:00,41.4,40.0,30.04,SSW,197,1.0,3.0,93,0.00,,,0.00,weatherlink.com 1.10,2013-09-25 03:16:00,
2013-09-24 23:31:00,41.1,40.0,30.03,SSW,198,3.0,4.0,94,0.00,,,0.00,weatherlink.com 1.10,2013-09-25 03:31:00,
2013-09-24 23:46:00,40.7,39.0,30.03,SSW,199,3.0,4.0,94,0.00,,,0.00,weatherlink.com 1.10,2013-09-25 03:46:00,